sensor_id;sensor_type;location;lat;lon;timestamp;pressure;altitude;pressure_sealevel;temperature;humidity
48244;BME280;34053;51.088;6.572;2022-10-16T00:01:51;100560.50;;;15.01;76.14
48244;BME280;34053;51.088;6.572;2022-10-16T00:04:24;100568.50;;;14.99;76.26
48244;BME280;34053;51.088;6.572;2022-10-16T00:06:55;100557.94;;;14.99;75.93
48244;BME280;34053;51.088;6.572;2022-10-16T00:09:28;100558.88;;;14.98;75.98
48244;BME280;34053;51.088;6.572;2022-10-16T00:11:59;100561.78;;;14.92;76.03
48244;BME280;34053;51.088;6.572;2022-10-16T00:14:40;100573.13;;;14.94;76.21
48244;BME280;34053;51.088;6.572;2022-10-16T00:17:12;100574.28;;;14.88;76.51
48244;BME280;34053;51.088;6.572;2022-10-16T00:19:42;100569.88;;;14.89;76.52
48244;BME280;34053;51.088;6.572;2022-10-16T00:22:13;100564.59;;;14.89;76.03
48244;BME280;34053;51.088;6.572;2022-10-16T00:24:50;100568.28;;;14.85;76.35
48244;BME280;34053;51.088;6.572;2022-10-16T00:27:21;100561.03;;;14.90;76.33
48244;BME280;34053;51.088;6.572;2022-10-16T00:29:57;100558.22;;;14.93;75.87
48244;BME280;34053;51.088;6.572;2022-10-16T00:32:27;100548.56;;;14.92;76.09
48244;BME280;34053;51.088;6.572;2022-10-16T00:34:58;100550.59;;;14.87;76.04
48244;BME280;34053;51.088;6.572;2022-10-16T00:37:33;100550.72;;;14.84;76.26
48244;BME280;34053;51.088;6.572;2022-10-16T00:40:32;100550.00;;;14.80;76.09
48244;BME280;34053;51.088;6.572;2022-10-16T00:46:38;100550.69;;;14.85;76.03
48244;BME280;34053;51.088;6.572;2022-10-16T00:49:19;100533.25;;;14.81;75.94
48244;BME280;34053;51.088;6.572;2022-10-16T00:51:53;100546.94;;;14.89;76.04
48244;BME280;34053;51.088;6.572;2022-10-16T00:54:29;100549.19;;;14.79;76.07
48244;BME280;34053;51.088;6.572;2022-10-16T00:57:04;100550.50;;;14.88;76.01
48244;BME280;34053;51.088;6.572;2022-10-16T00:59:40;100539.41;;;14.82;75.79
48244;BME280;34053;51.088;6.572;2022-10-16T01:02:14;100547.25;;;14.83;76.11
48244;BME280;34053;51.088;6.572;2022-10-16T01:04:48;100541.25;;;14.79;75.93
48244;BME280;34053;51.088;6.572;2022-10-16T01:10:35;100568.09;;;14.70;76.51
48244;BME280;34053;51.088;6.572;2022-10-16T01:13:32;100552.13;;;14.73;76.02
48244;BME280;34053;51.088;6.572;2022-10-16T01:16:15;100565.81;;;14.82;75.91
48244;BME280;34053;51.088;6.572;2022-10-16T01:18:59;100582.66;;;14.79;75.95
48244;BME280;34053;51.088;6.572;2022-10-16T01:21:40;100570.22;;;14.81;75.77
48244;BME280;34053;51.088;6.572;2022-10-16T01:24:41;100565.16;;;14.76;76.01
48244;BME280;34053;51.088;6.572;2022-10-16T01:27:36;100552.25;;;14.70;76.26
48244;BME280;34053;51.088;6.572;2022-10-16T01:30:29;100562.69;;;14.73;76.59
48244;BME280;34053;51.088;6.572;2022-10-16T01:33:07;100573.38;;;14.70;76.16
48244;BME280;34053;51.088;6.572;2022-10-16T01:35:46;100568.22;;;14.67;75.95
48244;BME280;34053;51.088;6.572;2022-10-16T01:38:38;100567.16;;;14.71;76.40
48244;BME280;34053;51.088;6.572;2022-10-16T01:41:13;100565.63;;;14.66;76.25
48244;BME280;34053;51.088;6.572;2022-10-16T01:44:17;100566.47;;;14.68;76.27
48244;BME280;34053;51.088;6.572;2022-10-16T01:46:54;100580.38;;;14.71;76.17
48244;BME280;34053;51.088;6.572;2022-10-16T01:49:30;100582.09;;;14.72;75.86
48244;BME280;34053;51.088;6.572;2022-10-16T01:52:16;100586.72;;;14.67;76.16
48244;BME280;34053;51.088;6.572;2022-10-16T01:54:57;100587.38;;;14.72;76.17
48244;BME280;34053;51.088;6.572;2022-10-16T01:57:31;100569.50;;;14.77;75.77
48244;BME280;34053;51.088;6.572;2022-10-16T02:00:12;100578.78;;;14.67;76.12
48244;BME280;34053;51.088;6.572;2022-10-16T02:02:47;100583.13;;;14.68;76.19
48244;BME280;34053;51.088;6.572;2022-10-16T02:05:27;100578.84;;;14.66;76.00
48244;BME280;34053;51.088;6.572;2022-10-16T02:07:59;100585.66;;;14.71;75.92
48244;BME280;34053;51.088;6.572;2022-10-16T02:10:35;100585.66;;;14.71;75.94
48244;BME280;34053;51.088;6.572;2022-10-16T02:13:15;100599.78;;;14.70;76.00
48244;BME280;34053;51.088;6.572;2022-10-16T02:15:50;100598.97;;;14.68;76.06
48244;BME280;34053;51.088;6.572;2022-10-16T02:18:21;100598.44;;;14.60;76.13
48244;BME280;34053;51.088;6.572;2022-10-16T02:23:35;100596.69;;;14.60;76.19
48244;BME280;34053;51.088;6.572;2022-10-16T02:26:13;100589.78;;;14.58;76.16
48244;BME280;34053;51.088;6.572;2022-10-16T02:29:11;100598.16;;;14.68;75.85
48244;BME280;34053;51.088;6.572;2022-10-16T02:31:46;100599.44;;;14.57;76.16
48244;BME280;34053;51.088;6.572;2022-10-16T02:34:20;100596.59;;;14.62;75.99
48244;BME280;34053;51.088;6.572;2022-10-16T02:36:53;100593.34;;;14.57;75.88
48244;BME280;34053;51.088;6.572;2022-10-16T02:39:28;100595.31;;;14.52;75.90
48244;BME280;34053;51.088;6.572;2022-10-16T02:41:59;100588.06;;;14.57;76.01
48244;BME280;34053;51.088;6.572;2022-10-16T02:44:29;100585.41;;;14.57;75.95
48244;BME280;34053;51.088;6.572;2022-10-16T02:47:02;100584.63;;;14.55;75.82
48244;BME280;34053;51.088;6.572;2022-10-16T02:49:32;100590.19;;;14.48;76.25
48244;BME280;34053;51.088;6.572;2022-10-16T02:52:03;100585.03;;;14.45;76.09
48244;BME280;34053;51.088;6.572;2022-10-16T02:54:33;100590.03;;;14.52;75.75
48244;BME280;34053;51.088;6.572;2022-10-16T02:57:04;100591.75;;;14.53;75.68
48244;BME280;34053;51.088;6.572;2022-10-16T02:59:35;100597.94;;;14.52;75.53
48244;BME280;34053;51.088;6.572;2022-10-16T03:02:06;100585.66;;;14.51;75.77
48244;BME280;34053;51.088;6.572;2022-10-16T03:04:39;100587.59;;;14.47;75.77
48244;BME280;34053;51.088;6.572;2022-10-16T03:07:15;100592.81;;;14.48;75.70
48244;BME280;34053;51.088;6.572;2022-10-16T03:09:49;100586.34;;;14.56;75.29
48244;BME280;34053;51.088;6.572;2022-10-16T03:12:27;100573.75;;;14.61;75.10
48244;BME280;34053;51.088;6.572;2022-10-16T03:14:58;100580.47;;;14.49;75.53
48244;BME280;34053;51.088;6.572;2022-10-16T03:17:28;100583.09;;;14.49;75.33
48244;BME280;34053;51.088;6.572;2022-10-16T03:20:02;100581.34;;;14.50;75.48
48244;BME280;34053;51.088;6.572;2022-10-16T03:22:39;100588.75;;;14.41;75.52
48244;BME280;34053;51.088;6.572;2022-10-16T03:25:17;100590.00;;;14.32;75.98
48244;BME280;34053;51.088;6.572;2022-10-16T03:27:47;100594.16;;;14.38;75.79
48244;BME280;34053;51.088;6.572;2022-10-16T03:30:19;100589.59;;;14.42;75.64
48244;BME280;34053;51.088;6.572;2022-10-16T03:32:50;100582.31;;;14.47;75.60
48244;BME280;34053;51.088;6.572;2022-10-16T03:35:24;100591.75;;;14.53;75.51
48244;BME280;34053;51.088;6.572;2022-10-16T03:37:57;100588.03;;;14.38;75.63
48244;BME280;34053;51.088;6.572;2022-10-16T03:40:27;100586.25;;;14.38;75.38
48244;BME280;34053;51.088;6.572;2022-10-16T03:42:58;100588.03;;;14.38;75.81
48244;BME280;34053;51.088;6.572;2022-10-16T03:45:31;100585.72;;;14.30;75.27
48244;BME280;34053;51.088;6.572;2022-10-16T03:48:04;100593.31;;;14.38;75.52
48244;BME280;34053;51.088;6.572;2022-10-16T03:50:41;100606.84;;;14.30;75.48
48244;BME280;34053;51.088;6.572;2022-10-16T03:53:15;100608.88;;;14.44;75.05
48244;BME280;34053;51.088;6.572;2022-10-16T03:55:48;100612.91;;;14.32;75.19
48244;BME280;34053;51.088;6.572;2022-10-16T03:58:20;100619.19;;;14.29;75.34
48244;BME280;34053;51.088;6.572;2022-10-16T04:00:53;100612.72;;;14.37;75.02
48244;BME280;34053;51.088;6.572;2022-10-16T04:03:26;100610.28;;;14.32;75.31
48244;BME280;34053;51.088;6.572;2022-10-16T04:05:57;100611.31;;;14.28;75.37
48244;BME280;34053;51.088;6.572;2022-10-16T04:08:27;100619.84;;;14.35;75.15
48244;BME280;34053;51.088;6.572;2022-10-16T04:10:58;100623.88;;;14.23;75.13
48244;BME280;34053;51.088;6.572;2022-10-16T04:13:31;100616.88;;;14.22;75.42
48244;BME280;34053;51.088;6.572;2022-10-16T04:16:01;100620.34;;;14.22;75.55
48244;BME280;34053;51.088;6.572;2022-10-16T04:18:32;100631.91;;;14.20;75.16
48244;BME280;34053;51.088;6.572;2022-10-16T04:21:04;100639.91;;;14.18;75.42
48244;BME280;34053;51.088;6.572;2022-10-16T04:23:35;100644.59;;;14.11;75.74
48244;BME280;34053;51.088;6.572;2022-10-16T04:26:08;100645.19;;;14.18;75.38
48244;BME280;34053;51.088;6.572;2022-10-16T04:28:40;100640.19;;;14.12;75.26
48244;BME280;34053;51.088;6.572;2022-10-16T04:31:13;100643.53;;;14.15;75.47
48244;BME280;34053;51.088;6.572;2022-10-16T04:33:47;100627.91;;;14.11;75.35
48244;BME280;34053;51.088;6.572;2022-10-16T04:36:17;100633.75;;;14.17;75.09
48244;BME280;34053;51.088;6.572;2022-10-16T04:38:51;100634.63;;;14.18;75.51
48244;BME280;34053;51.088;6.572;2022-10-16T04:41:23;100629.56;;;14.13;75.35
48244;BME280;34053;51.088;6.572;2022-10-16T04:43:56;100643.00;;;14.07;75.77
48244;BME280;34053;51.088;6.572;2022-10-16T04:46:28;100647.19;;;14.13;75.49
48244;BME280;34053;51.088;6.572;2022-10-16T04:48:58;100663.84;;;14.13;75.76
48244;BME280;34053;51.088;6.572;2022-10-16T04:51:32;100672.59;;;14.14;75.46
48244;BME280;34053;51.088;6.572;2022-10-16T04:54:03;100671.97;;;14.09;75.71
48244;BME280;34053;51.088;6.572;2022-10-16T04:56:37;100664.88;;;14.09;75.50
48244;BME280;34053;51.088;6.572;2022-10-16T04:59:19;100669.19;;;14.12;75.69
48244;BME280;34053;51.088;6.572;2022-10-16T05:01:50;100665.41;;;14.17;74.98
48244;BME280;34053;51.088;6.572;2022-10-16T05:04:21;100673.06;;;14.03;75.76
48244;BME280;34053;51.088;6.572;2022-10-16T05:06:54;100674.69;;;14.07;75.71
48244;BME280;34053;51.088;6.572;2022-10-16T05:09:25;100669.44;;;14.06;75.71
48244;BME280;34053;51.088;6.572;2022-10-16T05:11:58;100674.69;;;14.07;75.36
48244;BME280;34053;51.088;6.572;2022-10-16T05:14:29;100689.63;;;14.07;75.66
48244;BME280;34053;51.088;6.572;2022-10-16T05:17:03;100694.19;;;14.03;75.75
48244;BME280;34053;51.088;6.572;2022-10-16T05:19:35;100700.38;;;14.02;75.90
48244;BME280;34053;51.088;6.572;2022-10-16T05:22:10;100701.81;;;14.09;75.47
48244;BME280;34053;51.088;6.572;2022-10-16T05:24:43;100687.91;;;14.06;75.15
48244;BME280;34053;51.088;6.572;2022-10-16T05:27:14;100693.38;;;14.01;75.62
48244;BME280;34053;51.088;6.572;2022-10-16T05:29:50;100683.97;;;13.95;75.83
48244;BME280;34053;51.088;6.572;2022-10-16T05:32:21;100688.38;;;13.95;75.74
48244;BME280;34053;51.088;6.572;2022-10-16T05:34:51;100705.97;;;13.94;76.05
48244;BME280;34053;51.088;6.572;2022-10-16T05:37:22;100708.81;;;13.90;76.20
48244;BME280;34053;51.088;6.572;2022-10-16T05:39:52;100716.47;;;13.96;75.55
48244;BME280;34053;51.088;6.572;2022-10-16T05:42:24;100721.53;;;14.00;75.76
48244;BME280;34053;51.088;6.572;2022-10-16T05:44:54;100720.94;;;13.94;76.03
48244;BME280;34053;51.088;6.572;2022-10-16T05:47:25;100727.19;;;13.91;76.07
48244;BME280;34053;51.088;6.572;2022-10-16T05:49:58;100722.06;;;13.88;75.97
48244;BME280;34053;51.088;6.572;2022-10-16T05:52:28;100719.34;;;13.90;75.96
48244;BME280;34053;51.088;6.572;2022-10-16T05:54:59;100728.19;;;13.89;75.99
48244;BME280;34053;51.088;6.572;2022-10-16T05:57:33;100727.13;;;13.93;76.14
48244;BME280;34053;51.088;6.572;2022-10-16T06:00:07;100741.19;;;13.93;76.02
48244;BME280;34053;51.088;6.572;2022-10-16T06:02:44;100752.66;;;13.92;75.95
48244;BME280;34053;51.088;6.572;2022-10-16T06:05:14;100749.28;;;13.89;75.89
48244;BME280;34053;51.088;6.572;2022-10-16T06:07:45;100744.94;;;13.88;75.72
48244;BME280;34053;51.088;6.572;2022-10-16T06:10:33;100743.16;;;13.88;76.05
48244;BME280;34053;51.088;6.572;2022-10-16T06:13:07;100745.59;;;13.93;75.88
48244;BME280;34053;51.088;6.572;2022-10-16T06:15:41;100758.03;;;13.89;75.94
48244;BME280;34053;51.088;6.572;2022-10-16T06:18:14;100762.59;;;13.85;76.48
48244;BME280;34053;51.088;6.572;2022-10-16T06:20:44;100764.13;;;13.91;76.51
48244;BME280;34053;51.088;6.572;2022-10-16T06:23:15;100757.38;;;13.84;76.71
48244;BME280;34053;51.088;6.572;2022-10-16T06:25:47;100763.22;;;13.92;76.23
48244;BME280;34053;51.088;6.572;2022-10-16T06:28:17;100759.84;;;13.89;76.52
48244;BME280;34053;51.088;6.572;2022-10-16T06:30:48;100764.38;;;13.85;76.57
48244;BME280;34053;51.088;6.572;2022-10-16T06:33:28;100775.13;;;13.80;77.27
48244;BME280;34053;51.088;6.572;2022-10-16T06:36:15;100777.13;;;13.96;76.55
48244;BME280;34053;51.088;6.572;2022-10-16T06:38:46;100788.66;;;13.93;76.47
48244;BME280;34053;51.088;6.572;2022-10-16T06:41:26;100794.56;;;14.00;76.57
48244;BME280;34053;51.088;6.572;2022-10-16T06:43:56;100792.13;;;13.95;75.95
48244;BME280;34053;51.088;6.572;2022-10-16T06:46:28;100793.03;;;13.94;76.54
48244;BME280;34053;51.088;6.572;2022-10-16T06:48:58;100796.50;;;13.95;77.05
48244;BME280;34053;51.088;6.572;2022-10-16T06:51:37;100803.03;;;13.86;77.48
48244;BME280;34053;51.088;6.572;2022-10-16T06:54:12;100797.84;;;13.83;77.57
48244;BME280;34053;51.088;6.572;2022-10-16T06:56:42;100804.78;;;13.85;77.32
48244;BME280;34053;51.088;6.572;2022-10-16T06:59:13;100803.94;;;13.85;77.85
48244;BME280;34053;51.088;6.572;2022-10-16T07:01:43;100809.03;;;13.90;77.43
48244;BME280;34053;51.088;6.572;2022-10-16T07:04:14;100809.69;;;13.95;77.41
48244;BME280;34053;51.088;6.572;2022-10-16T07:06:45;100814.31;;;13.90;77.80
48244;BME280;34053;51.088;6.572;2022-10-16T07:09:15;100821.41;;;13.88;77.74
48244;BME280;34053;51.088;6.572;2022-10-16T07:11:45;100832.69;;;13.91;77.34
48244;BME280;34053;51.088;6.572;2022-10-16T07:14:21;100835.97;;;13.98;76.74
48244;BME280;34053;51.088;6.572;2022-10-16T07:16:54;100838.84;;;13.92;77.52
48244;BME280;34053;51.088;6.572;2022-10-16T07:19:25;100842.63;;;13.84;78.01
48244;BME280;34053;51.088;6.572;2022-10-16T07:21:58;100840.19;;;14.02;77.26
48244;BME280;34053;51.088;6.572;2022-10-16T07:24:29;100845.81;;;13.93;77.60
48244;BME280;34053;51.088;6.572;2022-10-16T07:27:03;100851.91;;;13.95;77.49
48244;BME280;34053;51.088;6.572;2022-10-16T07:29:36;100858.72;;;14.00;77.41
48244;BME280;34053;51.088;6.572;2022-10-16T07:32:09;100856.00;;;14.02;77.81
48244;BME280;34053;51.088;6.572;2022-10-16T07:34:39;100854.53;;;13.95;78.09
48244;BME280;34053;51.088;6.572;2022-10-16T07:37:10;100858.97;;;13.94;78.02
48244;BME280;34053;51.088;6.572;2022-10-16T07:39:41;100873.31;;;13.87;78.41
48244;BME280;34053;51.088;6.572;2022-10-16T07:42:11;100875.25;;;13.82;79.01
48244;BME280;34053;51.088;6.572;2022-10-16T07:44:42;100877.72;;;13.87;79.21
48244;BME280;34053;51.088;6.572;2022-10-16T07:47:13;100882.72;;;13.94;78.02
48244;BME280;34053;51.088;6.572;2022-10-16T07:49:53;100886.09;;;13.98;78.78
48244;BME280;34053;51.088;6.572;2022-10-16T07:52:30;100896.81;;;13.93;79.06
48244;BME280;34053;51.088;6.572;2022-10-16T07:55:08;100894.28;;;13.90;80.14
48244;BME280;34053;51.088;6.572;2022-10-16T07:57:39;100896.50;;;14.01;80.09
48244;BME280;34053;51.088;6.572;2022-10-16T08:00:10;100900.09;;;14.00;80.39
48244;BME280;34053;51.088;6.572;2022-10-16T08:02:43;100903.31;;;14.07;80.29
48244;BME280;34053;51.088;6.572;2022-10-16T08:05:17;100908.66;;;14.05;80.51
48244;BME280;34053;51.088;6.572;2022-10-16T08:07:50;100905.19;;;14.05;80.94
48244;BME280;34053;51.088;6.572;2022-10-16T08:10:23;100915.53;;;14.09;80.87
48244;BME280;34053;51.088;6.572;2022-10-16T08:13:00;100923.41;;;14.11;80.94
48244;BME280;34053;51.088;6.572;2022-10-16T08:15:31;100914.44;;;14.15;80.39
48244;BME280;34053;51.088;6.572;2022-10-16T08:18:16;100920.47;;;14.19;80.15
48244;BME280;34053;51.088;6.572;2022-10-16T08:20:55;100918.38;;;14.27;79.81
48244;BME280;34053;51.088;6.572;2022-10-16T08:23:28;100919.19;;;14.29;79.88
48244;BME280;34053;51.088;6.572;2022-10-16T08:26:04;100924.22;;;14.35;79.45
48244;BME280;34053;51.088;6.572;2022-10-16T08:28:39;100923.91;;;14.43;78.73
48244;BME280;34053;51.088;6.572;2022-10-16T08:31:15;100932.13;;;14.35;79.51
48244;BME280;34053;51.088;6.572;2022-10-16T08:33:46;100937.19;;;14.41;79.26
48244;BME280;34053;51.088;6.572;2022-10-16T08:36:18;100945.16;;;14.40;79.50
48244;BME280;34053;51.088;6.572;2022-10-16T08:38:50;100945.03;;;14.43;78.95
48244;BME280;34053;51.088;6.572;2022-10-16T08:44:30;100958.34;;;14.62;77.78
48244;BME280;34053;51.088;6.572;2022-10-16T08:49:47;100963.53;;;14.65;77.59
48244;BME280;34053;51.088;6.572;2022-10-16T08:52:22;100965.28;;;14.64;77.87
48244;BME280;34053;51.088;6.572;2022-10-16T08:54:54;100962.56;;;14.68;78.30
48244;BME280;34053;51.088;6.572;2022-10-16T08:57:26;100969.41;;;14.73;77.95
48244;BME280;34053;51.088;6.572;2022-10-16T09:00:01;100970.97;;;14.77;77.85
48244;BME280;34053;51.088;6.572;2022-10-16T09:05:57;100982.16;;;14.84;76.44
48244;BME280;34053;51.088;6.572;2022-10-16T09:08:47;100985.41;;;14.91;76.05
48244;BME280;34053;51.088;6.572;2022-10-16T09:11:55;100987.06;;;14.93;75.60
48244;BME280;34053;51.088;6.572;2022-10-16T09:17:25;100978.16;;;14.96;75.74
48244;BME280;34053;51.088;6.572;2022-10-16T09:23:13;100991.91;;;15.04;76.01
48244;BME280;34053;51.088;6.572;2022-10-16T09:25:48;100997.84;;;15.09;76.03
48244;BME280;34053;51.088;6.572;2022-10-16T09:28:19;101003.66;;;15.18;74.24
48244;BME280;34053;51.088;6.572;2022-10-16T09:30:50;101002.56;;;15.23;74.12
48244;BME280;34053;51.088;6.572;2022-10-16T09:33:24;100999.72;;;15.28;73.34
48244;BME280;34053;51.088;6.572;2022-10-16T09:35:57;101000.53;;;15.30;73.26
48244;BME280;34053;51.088;6.572;2022-10-16T09:38:34;101008.31;;;15.33;73.75
48244;BME280;34053;51.088;6.572;2022-10-16T09:41:21;101013.41;;;15.38;73.97
48244;BME280;34053;51.088;6.572;2022-10-16T09:44:03;101010.72;;;15.39;74.38
48244;BME280;34053;51.088;6.572;2022-10-16T09:46:38;101004.34;;;15.43;73.34
48244;BME280;34053;51.088;6.572;2022-10-16T09:49:24;101008.00;;;15.41;73.52
48244;BME280;34053;51.088;6.572;2022-10-16T09:52:24;101012.97;;;15.49;73.08
48244;BME280;34053;51.088;6.572;2022-10-16T09:54:57;101012.81;;;15.52;72.23
48244;BME280;34053;51.088;6.572;2022-10-16T09:57:30;101007.41;;;15.55;71.00
48244;BME280;34053;51.088;6.572;2022-10-16T10:00:08;101009.38;;;15.50;71.12
48244;BME280;34053;51.088;6.572;2022-10-16T10:02:39;101012.78;;;15.53;70.76
48244;BME280;34053;51.088;6.572;2022-10-16T10:07:57;101020.22;;;15.64;70.21
48244;BME280;34053;51.088;6.572;2022-10-16T10:10:36;101008.78;;;15.64;71.49
48244;BME280;34053;51.088;6.572;2022-10-16T10:13:22;101012.94;;;15.69;70.80
48244;BME280;34053;51.088;6.572;2022-10-16T10:15:57;101010.75;;;15.79;70.19
48244;BME280;34053;51.088;6.572;2022-10-16T10:18:34;101004.81;;;15.74;69.49
48244;BME280;34053;51.088;6.572;2022-10-16T10:21:04;100998.91;;;15.67;69.49
48244;BME280;34053;51.088;6.572;2022-10-16T10:23:57;101015.72;;;15.66;70.91
48244;BME280;34053;51.088;6.572;2022-10-16T10:26:35;101021.00;;;15.66;71.73
48244;BME280;34053;51.088;6.572;2022-10-16T10:34:48;101017.59;;;15.85;70.33
48244;BME280;34053;51.088;6.572;2022-10-16T10:37:37;101021.75;;;15.91;69.75
48244;BME280;34053;51.088;6.572;2022-10-16T10:40:39;101024.31;;;15.92;70.46
48244;BME280;34053;51.088;6.572;2022-10-16T10:52:43;101016.63;;;16.07;69.51
48244;BME280;34053;51.088;6.572;2022-10-16T10:55:44;101019.78;;;16.15;69.75
48244;BME280;34053;51.088;6.572;2022-10-16T10:58:21;101025.81;;;16.18;70.17
48244;BME280;34053;51.088;6.572;2022-10-16T11:01:16;101024.88;;;16.19;69.76
48244;BME280;34053;51.088;6.572;2022-10-16T11:09:34;101030.81;;;16.44;69.19
48244;BME280;34053;51.088;6.572;2022-10-16T11:12:17;101029.47;;;16.54;68.68
48244;BME280;34053;51.088;6.572;2022-10-16T11:15:00;101039.13;;;16.55;68.63
48244;BME280;34053;51.088;6.572;2022-10-16T11:17:39;101038.97;;;16.58;69.07
48244;BME280;34053;51.088;6.572;2022-10-16T11:22:50;101039.69;;;16.81;68.37
48244;BME280;34053;51.088;6.572;2022-10-16T11:25:34;101039.00;;;16.95;67.67
48244;BME280;34053;51.088;6.572;2022-10-16T11:28:13;101036.63;;;17.08;67.81
48244;BME280;34053;51.088;6.572;2022-10-16T11:31:00;101033.50;;;17.17;66.34
48244;BME280;34053;51.088;6.572;2022-10-16T11:37:24;101045.22;;;17.48;64.94
48244;BME280;34053;51.088;6.572;2022-10-16T11:39:59;101033.50;;;17.87;63.63
48244;BME280;34053;51.088;6.572;2022-10-16T11:42:46;101045.06;;;17.69;65.93
48244;BME280;34053;51.088;6.572;2022-10-16T11:48:01;101042.22;;;18.07;62.18
48244;BME280;34053;51.088;6.572;2022-10-16T11:50:54;101043.59;;;18.14;62.79
48244;BME280;34053;51.088;6.572;2022-10-16T11:53:42;101043.16;;;18.06;63.39
48244;BME280;34053;51.088;6.572;2022-10-16T11:56:18;101044.63;;;18.12;62.34
48244;BME280;34053;51.088;6.572;2022-10-16T11:59:33;101044.91;;;18.39;60.49
48244;BME280;34053;51.088;6.572;2022-10-16T12:08:04;101059.94;;;18.72;59.93
48244;BME280;34053;51.088;6.572;2022-10-16T12:10:41;101045.84;;;18.86;57.88
48244;BME280;34053;51.088;6.572;2022-10-16T12:13:39;101046.91;;;18.83;58.15
48244;BME280;34053;51.088;6.572;2022-10-16T12:18:45;101054.13;;;18.97;58.63
48244;BME280;34053;51.088;6.572;2022-10-16T12:21:32;101043.28;;;19.16;57.89
48244;BME280;34053;51.088;6.572;2022-10-16T12:24:21;101040.03;;;19.11;59.15
48244;BME280;34053;51.088;6.572;2022-10-16T12:27:30;101026.34;;;19.03;58.80
48244;BME280;34053;51.088;6.572;2022-10-16T12:30:14;101035.41;;;18.99;60.78
48244;BME280;34053;51.088;6.572;2022-10-16T12:32:58;101029.94;;;19.02;63.24
48244;BME280;34053;51.088;6.572;2022-10-16T12:35:43;101030.00;;;19.31;59.21
48244;BME280;34053;51.088;6.572;2022-10-16T12:38:51;101035.03;;;19.21;59.93
48244;BME280;34053;51.088;6.572;2022-10-16T12:41:34;101042.06;;;19.22;61.42
48244;BME280;34053;51.088;6.572;2022-10-16T12:44:31;101048.88;;;19.42;58.29
48244;BME280;34053;51.088;6.572;2022-10-16T12:47:02;101042.97;;;19.37;59.35
48244;BME280;34053;51.088;6.572;2022-10-16T12:53:24;101047.63;;;19.33;60.12
48244;BME280;34053;51.088;6.572;2022-10-16T13:07:17;101030.22;;;19.73;58.53
48244;BME280;34053;51.088;6.572;2022-10-16T13:13:24;101032.78;;;19.74;59.72
48244;BME280;34053;51.088;6.572;2022-10-16T13:22:34;101036.69;;;20.26;52.67
48244;BME280;34053;51.088;6.572;2022-10-16T13:28:05;101037.56;;;20.41;55.36
48244;BME280;34053;51.088;6.572;2022-10-16T13:30:44;101041.06;;;20.56;52.36
48244;BME280;34053;51.088;6.572;2022-10-16T13:33:32;101047.19;;;20.86;51.38
48244;BME280;34053;51.088;6.572;2022-10-16T13:36:19;101041.59;;;20.76;53.86
48244;BME280;34053;51.088;6.572;2022-10-16T13:39:06;101021.63;;;20.54;54.57
48244;BME280;34053;51.088;6.572;2022-10-16T13:42:24;101028.97;;;20.51;53.72
48244;BME280;34053;51.088;6.572;2022-10-16T13:44:56;101032.28;;;20.54;55.57
48244;BME280;34053;51.088;6.572;2022-10-16T13:47:30;101042.94;;;20.54;54.69
48244;BME280;34053;51.088;6.572;2022-10-16T13:50:14;101044.66;;;20.55;54.08
48244;BME280;34053;51.088;6.572;2022-10-16T13:53:13;101047.63;;;20.51;55.86
48244;BME280;34053;51.088;6.572;2022-10-16T13:55:47;101048.28;;;20.54;54.12
48244;BME280;34053;51.088;6.572;2022-10-16T13:58:20;101047.63;;;20.51;55.42
48244;BME280;34053;51.088;6.572;2022-10-16T14:00:58;101050.75;;;20.43;56.35
48244;BME280;34053;51.088;6.572;2022-10-16T14:03:30;101049.25;;;20.39;56.81
48244;BME280;34053;51.088;6.572;2022-10-16T14:06:06;101061.16;;;20.33;54.69
48244;BME280;34053;51.088;6.572;2022-10-16T14:08:46;101054.50;;;20.26;55.74
48244;BME280;34053;51.088;6.572;2022-10-16T14:11:24;101041.47;;;20.21;54.92
48244;BME280;34053;51.088;6.572;2022-10-16T14:13:56;101041.97;;;20.28;57.65
48244;BME280;34053;51.088;6.572;2022-10-16T14:16:31;101042.31;;;20.22;56.47
48244;BME280;34053;51.088;6.572;2022-10-16T14:19:26;101046.97;;;20.18;54.86
48244;BME280;34053;51.088;6.572;2022-10-16T14:22:43;101047.09;;;20.17;55.74
48244;BME280;34053;51.088;6.572;2022-10-16T14:31:16;101036.81;;;20.10;57.00
48244;BME280;34053;51.088;6.572;2022-10-16T14:33:54;101030.56;;;20.11;56.62
48244;BME280;34053;51.088;6.572;2022-10-16T14:36:26;101045.75;;;20.09;57.22
48244;BME280;34053;51.088;6.572;2022-10-16T14:39:03;101043.28;;;20.06;57.34
48244;BME280;34053;51.088;6.572;2022-10-16T14:41:56;101056.03;;;20.01;57.20
48244;BME280;34053;51.088;6.572;2022-10-16T14:44:32;101057.25;;;19.95;55.38
48244;BME280;34053;51.088;6.572;2022-10-16T14:47:13;101057.94;;;19.99;56.89
48244;BME280;34053;51.088;6.572;2022-10-16T14:49:53;101061.38;;;19.87;57.14
48244;BME280;34053;51.088;6.572;2022-10-16T14:52:29;101050.84;;;19.84;57.83
48244;BME280;34053;51.088;6.572;2022-10-16T14:55:09;101055.63;;;19.78;57.55
48244;BME280;34053;51.088;6.572;2022-10-16T15:00:34;101064.53;;;19.77;58.46
48244;BME280;34053;51.088;6.572;2022-10-16T15:03:05;101063.88;;;19.74;58.89
48244;BME280;34053;51.088;6.572;2022-10-16T15:05:52;101059.78;;;19.82;59.15
48244;BME280;34053;51.088;6.572;2022-10-16T15:08:22;101048.84;;;19.73;58.51
48244;BME280;34053;51.088;6.572;2022-10-16T15:10:59;101050.63;;;19.58;58.70
48244;BME280;34053;51.088;6.572;2022-10-16T15:13:39;101042.63;;;19.58;59.40
48244;BME280;34053;51.088;6.572;2022-10-16T15:16:11;101037.47;;;19.55;59.12
48244;BME280;34053;51.088;6.572;2022-10-16T15:19:14;101028.16;;;19.47;59.68
48244;BME280;34053;51.088;6.572;2022-10-16T15:21:47;101033.47;;;19.47;60.45
48244;BME280;34053;51.088;6.572;2022-10-16T15:24:20;101035.19;;;19.48;60.49